sensor_id;sensor_type;location;lat;lon;timestamp;P1;durP1;ratioP1;P2;durP2;ratioP2
21941;SDS011;11135;54.192;15.670;2024-03-02T00:00:19;71.03;;;39.65;;
21941;SDS011;11135;54.192;15.670;2024-03-02T00:04:05;73.28;;;42.13;;
21941;SDS011;11135;54.192;15.670;2024-03-02T00:07:31;70.30;;;40.72;;
21941;SDS011;11135;54.192;15.670;2024-03-02T00:11:00;74.25;;;41.28;;
21941;SDS011;11135;54.192;15.670;2024-03-02T00:14:27;69.30;;;39.25;;
21941;SDS011;11135;54.192;15.670;2024-03-02T00:17:54;69.38;;;41.65;;
21941;SDS011;11135;54.192;15.670;2024-03-02T00:21:20;69.53;;;40.83;;
21941;SDS011;11135;54.192;15.670;2024-03-02T00:24:46;71.28;;;43.28;;
21941;SDS011;11135;54.192;15.670;2024-03-02T00:31:44;69.63;;;40.17;;
21941;SDS011;11135;54.192;15.670;2024-03-02T00:35:10;70.32;;;42.28;;
21941;SDS011;11135;54.192;15.670;2024-03-02T00:38:42;67.38;;;38.78;;
21941;SDS011;11135;54.192;15.670;2024-03-02T00:42:08;66.38;;;38.67;;
21941;SDS011;11135;54.192;15.670;2024-03-02T00:45:34;62.72;;;37.55;;
21941;SDS011;11135;54.192;15.670;2024-03-02T00:49:02;67.53;;;38.47;;
21941;SDS011;11135;54.192;15.670;2024-03-02T00:52:28;69.15;;;41.15;;
21941;SDS011;11135;54.192;15.670;2024-03-02T00:55:55;69.07;;;40.05;;
21941;SDS011;11135;54.192;15.670;2024-03-02T00:59:21;67.63;;;41.50;;
21941;SDS011;11135;54.192;15.670;2024-03-02T01:02:47;67.05;;;37.92;;
21941;SDS011;11135;54.192;15.670;2024-03-02T01:06:15;69.22;;;39.88;;
21941;SDS011;11135;54.192;15.670;2024-03-02T01:09:41;64.20;;;39.03;;
21941;SDS011;11135;54.192;15.670;2024-03-02T01:13:07;82.60;;;42.03;;
21941;SDS011;11135;54.192;15.670;2024-03-02T01:16:33;74.05;;;41.75;;
21941;SDS011;11135;54.192;15.670;2024-03-02T01:19:59;76.15;;;43.05;;
21941;SDS011;11135;54.192;15.670;2024-03-02T01:23:27;76.25;;;43.40;;
21941;SDS011;11135;54.192;15.670;2024-03-02T01:26:53;80.43;;;44.53;;
21941;SDS011;11135;54.192;15.670;2024-03-02T01:30:19;75.85;;;42.08;;
21941;SDS011;11135;54.192;15.670;2024-03-02T01:33:44;69.70;;;39.30;;
21941;SDS011;11135;54.192;15.670;2024-03-02T01:37:10;81.22;;;42.63;;
21941;SDS011;11135;54.192;15.670;2024-03-02T01:40:38;83.20;;;43.28;;
21941;SDS011;11135;54.192;15.670;2024-03-02T01:44:04;80.00;;;44.92;;
21941;SDS011;11135;54.192;15.670;2024-03-02T01:47:30;87.07;;;44.70;;
21941;SDS011;11135;54.192;15.670;2024-03-02T01:50:56;76.75;;;41.38;;
21941;SDS011;11135;54.192;15.670;2024-03-02T01:54:21;75.95;;;42.03;;
21941;SDS011;11135;54.192;15.670;2024-03-02T01:57:49;88.63;;;44.55;;
21941;SDS011;11135;54.192;15.670;2024-03-02T02:01:17;77.45;;;41.65;;
21941;SDS011;11135;54.192;15.670;2024-03-02T02:04:42;76.85;;;40.50;;
21941;SDS011;11135;54.192;15.670;2024-03-02T02:08:08;78.63;;;42.00;;
21941;SDS011;11135;54.192;15.670;2024-03-02T02:11:34;105.30;;;46.42;;
21941;SDS011;11135;54.192;15.670;2024-03-02T02:15:02;104.82;;;50.97;;
21941;SDS011;11135;54.192;15.670;2024-03-02T02:18:28;104.47;;;51.63;;
21941;SDS011;11135;54.192;15.670;2024-03-02T02:21:56;106.35;;;49.03;;
21941;SDS011;11135;54.192;15.670;2024-03-02T02:25:22;93.78;;;47.05;;
21941;SDS011;11135;54.192;15.670;2024-03-02T02:28:47;100.22;;;48.13;;
21941;SDS011;11135;54.192;15.670;2024-03-02T02:32:13;90.55;;;45.97;;
21941;SDS011;11135;54.192;15.670;2024-03-02T02:35:39;90.88;;;47.45;;
21941;SDS011;11135;54.192;15.670;2024-03-02T02:39:09;95.78;;;47.15;;
21941;SDS011;11135;54.192;15.670;2024-03-02T02:42:35;88.85;;;45.17;;
21941;SDS011;11135;54.192;15.670;2024-03-02T02:46:01;93.10;;;45.63;;
21941;SDS011;11135;54.192;15.670;2024-03-02T02:49:27;90.03;;;42.65;;
21941;SDS011;11135;54.192;15.670;2024-03-02T02:52:56;78.72;;;41.85;;
21941;SDS011;11135;54.192;15.670;2024-03-02T02:56:24;91.45;;;45.35;;
21941;SDS011;11135;54.192;15.670;2024-03-02T02:59:49;93.25;;;44.42;;
21941;SDS011;11135;54.192;15.670;2024-03-02T03:03:15;93.00;;;45.03;;
21941;SDS011;11135;54.192;15.670;2024-03-02T03:06:41;86.13;;;42.95;;
21941;SDS011;11135;54.192;15.670;2024-03-02T03:10:07;82.93;;;43.38;;
21941;SDS011;11135;54.192;15.670;2024-03-02T03:13:36;84.97;;;43.15;;
21941;SDS011;11135;54.192;15.670;2024-03-02T03:17:02;92.35;;;44.67;;
21941;SDS011;11135;54.192;15.670;2024-03-02T03:20:29;80.18;;;41.22;;
21941;SDS011;11135;54.192;15.670;2024-03-02T03:23:55;77.82;;;40.58;;
21941;SDS011;11135;54.192;15.670;2024-03-02T03:27:20;85.05;;;40.67;;
21941;SDS011;11135;54.192;15.670;2024-03-02T03:30:48;78.43;;;39.90;;
21941;SDS011;11135;54.192;15.670;2024-03-02T03:34:14;78.90;;;43.03;;
21941;SDS011;11135;54.192;15.670;2024-03-02T03:37:40;80.88;;;41.75;;
21941;SDS011;11135;54.192;15.670;2024-03-02T03:41:06;81.65;;;39.33;;
21941;SDS011;11135;54.192;15.670;2024-03-02T03:44:31;86.93;;;42.67;;
21941;SDS011;11135;54.192;15.670;2024-03-02T03:48:00;81.35;;;40.33;;
21941;SDS011;11135;54.192;15.670;2024-03-02T03:51:25;75.15;;;38.75;;
21941;SDS011;11135;54.192;15.670;2024-03-02T03:54:51;81.72;;;39.97;;
21941;SDS011;11135;54.192;15.670;2024-03-02T03:58:17;73.65;;;40.10;;
21941;SDS011;11135;54.192;15.670;2024-03-02T04:01:44;75.03;;;38.20;;
21941;SDS011;11135;54.192;15.670;2024-03-02T04:05:12;75.88;;;39.05;;
21941;SDS011;11135;54.192;15.670;2024-03-02T04:08:38;80.20;;;39.38;;
21941;SDS011;11135;54.192;15.670;2024-03-02T04:12:04;75.25;;;38.60;;
21941;SDS011;11135;54.192;15.670;2024-03-02T04:15:30;64.97;;;32.38;;
21941;SDS011;11135;54.192;15.670;2024-03-02T04:18:55;77.32;;;39.58;;
21941;SDS011;11135;54.192;15.670;2024-03-02T04:22:24;70.82;;;35.67;;
21941;SDS011;11135;54.192;15.670;2024-03-02T04:25:50;69.53;;;36.22;;
21941;SDS011;11135;54.192;15.670;2024-03-02T04:29:15;71.82;;;36.30;;
21941;SDS011;11135;54.192;15.670;2024-03-02T04:32:41;72.75;;;37.08;;
21941;SDS011;11135;54.192;15.670;2024-03-02T04:36:09;75.45;;;38.65;;
21941;SDS011;11135;54.192;15.670;2024-03-02T04:39:37;70.10;;;37.65;;
21941;SDS011;11135;54.192;15.670;2024-03-02T04:43:03;59.38;;;31.58;;
21941;SDS011;11135;54.192;15.670;2024-03-02T04:46:31;66.45;;;32.90;;
21941;SDS011;11135;54.192;15.670;2024-03-02T04:49:56;71.22;;;36.25;;
21941;SDS011;11135;54.192;15.670;2024-03-02T04:53:22;72.60;;;37.67;;
21941;SDS011;11135;54.192;15.670;2024-03-02T04:56:51;69.05;;;35.60;;
21941;SDS011;11135;54.192;15.670;2024-03-02T05:00:16;71.40;;;37.15;;
21941;SDS011;11135;54.192;15.670;2024-03-02T05:03:43;75.65;;;35.60;;
21941;SDS011;11135;54.192;15.670;2024-03-02T05:07:08;72.35;;;37.85;;
21941;SDS011;11135;54.192;15.670;2024-03-02T05:10:34;74.85;;;36.53;;
21941;SDS011;11135;54.192;15.670;2024-03-02T05:14:02;67.93;;;34.72;;
21941;SDS011;11135;54.192;15.670;2024-03-02T05:17:29;66.25;;;32.25;;
21941;SDS011;11135;54.192;15.670;2024-03-02T05:20:55;67.32;;;33.83;;
21941;SDS011;11135;54.192;15.670;2024-03-02T05:24:20;68.75;;;33.90;;
21941;SDS011;11135;54.192;15.670;2024-03-02T05:27:46;63.75;;;32.05;;
21941;SDS011;11135;54.192;15.670;2024-03-02T05:31:15;56.85;;;28.17;;
21941;SDS011;11135;54.192;15.670;2024-03-02T05:34:40;66.40;;;35.17;;
21941;SDS011;11135;54.192;15.670;2024-03-02T05:38:06;75.70;;;34.75;;
21941;SDS011;11135;54.192;15.670;2024-03-02T05:41:32;69.30;;;34.35;;
21941;SDS011;11135;54.192;15.670;2024-03-02T05:44:57;73.25;;;35.53;;
21941;SDS011;11135;54.192;15.670;2024-03-02T05:48:26;57.72;;;28.02;;
21941;SDS011;11135;54.192;15.670;2024-03-02T05:51:51;75.47;;;36.40;;
21941;SDS011;11135;54.192;15.670;2024-03-02T05:55:17;67.47;;;34.30;;
21941;SDS011;11135;54.192;15.670;2024-03-02T05:58:43;64.65;;;34.38;;
21941;SDS011;11135;54.192;15.670;2024-03-02T06:02:20;77.50;;;37.10;;
21941;SDS011;11135;54.192;15.670;2024-03-02T06:05:48;66.72;;;34.17;;
21941;SDS011;11135;54.192;15.670;2024-03-02T06:09:14;75.43;;;36.83;;
21941;SDS011;11135;54.192;15.670;2024-03-02T06:12:42;66.20;;;32.63;;
21941;SDS011;11135;54.192;15.670;2024-03-02T06:16:08;74.10;;;36.53;;
21941;SDS011;11135;54.192;15.670;2024-03-02T06:19:34;73.70;;;35.75;;
21941;SDS011;11135;54.192;15.670;2024-03-02T06:23:02;76.32;;;37.78;;
21941;SDS011;11135;54.192;15.670;2024-03-02T06:26:28;74.47;;;35.53;;
21941;SDS011;11135;54.192;15.670;2024-03-02T06:29:54;64.25;;;31.80;;
21941;SDS011;11135;54.192;15.670;2024-03-02T06:33:20;76.22;;;36.72;;
21941;SDS011;11135;54.192;15.670;2024-03-02T06:36:45;73.32;;;36.65;;
21941;SDS011;11135;54.192;15.670;2024-03-02T06:40:14;62.97;;;31.73;;
21941;SDS011;11135;54.192;15.670;2024-03-02T06:43:40;64.90;;;32.80;;
21941;SDS011;11135;54.192;15.670;2024-03-02T06:47:05;75.70;;;35.92;;
21941;SDS011;11135;54.192;15.670;2024-03-02T06:50:31;70.63;;;35.78;;
21941;SDS011;11135;54.192;15.670;2024-03-02T06:53:57;75.78;;;34.78;;
21941;SDS011;11135;54.192;15.670;2024-03-02T06:57:25;70.85;;;33.75;;
21941;SDS011;11135;54.192;15.670;2024-03-02T07:00:51;80.78;;;36.97;;
21941;SDS011;11135;54.192;15.670;2024-03-02T07:04:17;70.78;;;34.63;;
21941;SDS011;11135;54.192;15.670;2024-03-02T07:07:43;66.85;;;32.35;;
21941;SDS011;11135;54.192;15.670;2024-03-02T07:11:09;75.63;;;34.78;;
21941;SDS011;11135;54.192;15.670;2024-03-02T07:14:37;64.03;;;29.75;;
21941;SDS011;11135;54.192;15.670;2024-03-02T07:18:15;75.65;;;35.78;;
21941;SDS011;11135;54.192;15.670;2024-03-02T07:21:41;61.78;;;32.40;;
21941;SDS011;11135;54.192;15.670;2024-03-02T07:25:06;59.78;;;29.00;;
21941;SDS011;11135;54.192;15.670;2024-03-02T07:28:52;63.35;;;31.08;;
21941;SDS011;11135;54.192;15.670;2024-03-02T07:32:20;67.45;;;31.75;;
21941;SDS011;11135;54.192;15.670;2024-03-02T07:35:46;64.18;;;30.17;;
21941;SDS011;11135;54.192;15.670;2024-03-02T07:39:12;61.45;;;31.33;;
21941;SDS011;11135;54.192;15.670;2024-03-02T07:42:39;63.25;;;30.67;;
21941;SDS011;11135;54.192;15.670;2024-03-02T07:46:05;65.35;;;30.75;;
21941;SDS011;11135;54.192;15.670;2024-03-02T07:49:34;60.35;;;30.23;;
21941;SDS011;11135;54.192;15.670;2024-03-02T07:52:59;63.30;;;31.05;;
21941;SDS011;11135;54.192;15.670;2024-03-02T07:56:25;60.47;;;27.00;;
21941;SDS011;11135;54.192;15.670;2024-03-02T07:59:51;61.67;;;31.67;;
21941;SDS011;11135;54.192;15.670;2024-03-02T08:03:16;62.25;;;30.63;;
21941;SDS011;11135;54.192;15.670;2024-03-02T08:06:47;54.08;;;28.38;;
21941;SDS011;11135;54.192;15.670;2024-03-02T08:10:13;55.80;;;27.38;;
21941;SDS011;11135;54.192;15.670;2024-03-02T08:13:39;55.10;;;30.58;;
21941;SDS011;11135;54.192;15.670;2024-03-02T08:17:04;55.60;;;30.52;;
21941;SDS011;11135;54.192;15.670;2024-03-02T08:20:32;51.53;;;26.45;;
21941;SDS011;11135;54.192;15.670;2024-03-02T08:24:01;56.22;;;31.10;;
21941;SDS011;11135;54.192;15.670;2024-03-02T08:27:27;55.78;;;30.45;;
21941;SDS011;11135;54.192;15.670;2024-03-02T08:30:55;55.92;;;29.48;;
21941;SDS011;11135;54.192;15.670;2024-03-02T08:34:20;55.10;;;27.92;;
21941;SDS011;11135;54.192;15.670;2024-03-02T08:37:46;54.92;;;30.17;;
21941;SDS011;11135;54.192;15.670;2024-03-02T08:41:14;50.38;;;29.15;;
21941;SDS011;11135;54.192;15.670;2024-03-02T08:44:41;56.83;;;30.15;;
21941;SDS011;11135;54.192;15.670;2024-03-02T08:48:08;55.00;;;28.88;;
21941;SDS011;11135;54.192;15.670;2024-03-02T08:51:34;52.67;;;29.52;;
21941;SDS011;11135;54.192;15.670;2024-03-02T08:55:00;52.38;;;27.38;;
21941;SDS011;11135;54.192;15.670;2024-03-02T08:58:28;56.22;;;30.00;;
21941;SDS011;11135;54.192;15.670;2024-03-02T09:01:54;54.65;;;30.17;;
21941;SDS011;11135;54.192;15.670;2024-03-02T09:05:20;49.33;;;27.30;;
21941;SDS011;11135;54.192;15.670;2024-03-02T09:08:45;48.30;;;27.00;;
21941;SDS011;11135;54.192;15.670;2024-03-02T09:12:15;52.55;;;28.23;;
21941;SDS011;11135;54.192;15.670;2024-03-02T09:15:43;53.45;;;29.48;;
21941;SDS011;11135;54.192;15.670;2024-03-02T09:19:09;54.92;;;28.58;;
21941;SDS011;11135;54.192;15.670;2024-03-02T09:22:35;54.17;;;28.65;;
21941;SDS011;11135;54.192;15.670;2024-03-02T09:26:01;54.13;;;28.85;;
21941;SDS011;11135;54.192;15.670;2024-03-02T09:29:26;43.17;;;24.58;;
21941;SDS011;11135;54.192;15.670;2024-03-02T09:32:55;53.10;;;29.00;;
21941;SDS011;11135;54.192;15.670;2024-03-02T09:36:23;54.92;;;31.58;;
21941;SDS011;11135;54.192;15.670;2024-03-02T09:39:50;50.70;;;27.63;;
21941;SDS011;11135;54.192;15.670;2024-03-02T09:43:16;51.15;;;27.88;;
21941;SDS011;11135;54.192;15.670;2024-03-02T09:46:43;55.47;;;30.67;;
21941;SDS011;11135;54.192;15.670;2024-03-02T09:50:12;50.75;;;29.67;;
21941;SDS011;11135;54.192;15.670;2024-03-02T09:53:38;49.58;;;27.45;;
21941;SDS011;11135;54.192;15.670;2024-03-02T09:57:05;57.92;;;27.98;;
21941;SDS011;11135;54.192;15.670;2024-03-02T10:00:30;42.42;;;24.80;;
21941;SDS011;11135;54.192;15.670;2024-03-02T10:03:57;53.00;;;29.17;;
21941;SDS011;11135;54.192;15.670;2024-03-02T10:07:27;51.75;;;30.38;;
21941;SDS011;11135;54.192;15.670;2024-03-02T10:10:53;56.28;;;30.63;;
21941;SDS011;11135;54.192;15.670;2024-03-02T10:14:19;53.45;;;30.73;;
21941;SDS011;11135;54.192;15.670;2024-03-02T10:17:45;52.55;;;30.25;;
21941;SDS011;11135;54.192;15.670;2024-03-02T10:21:12;56.47;;;30.40;;
21941;SDS011;11135;54.192;15.670;2024-03-02T10:24:41;52.17;;;29.58;;
21941;SDS011;11135;54.192;15.670;2024-03-02T10:28:08;53.20;;;30.77;;
21941;SDS011;11135;54.192;15.670;2024-03-02T10:31:33;50.35;;;27.67;;
21941;SDS011;11135;54.192;15.670;2024-03-02T10:34:59;53.97;;;30.08;;
21941;SDS011;11135;54.192;15.670;2024-03-02T10:38:26;49.35;;;28.67;;
21941;SDS011;11135;54.192;15.670;2024-03-02T10:41:54;52.58;;;29.52;;
21941;SDS011;11135;54.192;15.670;2024-03-02T10:45:22;47.92;;;29.00;;
21941;SDS011;11135;54.192;15.670;2024-03-02T10:48:48;49.20;;;30.05;;
21941;SDS011;11135;54.192;15.670;2024-03-02T10:52:15;49.42;;;29.75;;
21941;SDS011;11135;54.192;15.670;2024-03-02T10:55:41;46.30;;;27.77;;
21941;SDS011;11135;54.192;15.670;2024-03-02T10:59:13;44.58;;;26.80;;
21941;SDS011;11135;54.192;15.670;2024-03-02T11:02:42;53.92;;;31.75;;
21941;SDS011;11135;54.192;15.670;2024-03-02T11:06:11;53.28;;;31.05;;
21941;SDS011;11135;54.192;15.670;2024-03-02T11:09:40;49.45;;;28.90;;
21941;SDS011;11135;54.192;15.670;2024-03-02T11:13:08;50.80;;;29.35;;
21941;SDS011;11135;54.192;15.670;2024-03-02T11:16:37;46.55;;;29.05;;
21941;SDS011;11135;54.192;15.670;2024-03-02T11:20:04;49.53;;;32.28;;
21941;SDS011;11135;54.192;15.670;2024-03-02T11:23:31;48.80;;;28.55;;
21941;SDS011;11135;54.192;15.670;2024-03-02T11:27:00;54.33;;;32.85;;
21941;SDS011;11135;54.192;15.670;2024-03-02T11:34:26;54.40;;;29.13;;
21941;SDS011;11135;54.192;15.670;2024-03-02T11:37:54;52.30;;;31.83;;
21941;SDS011;11135;54.192;15.670;2024-03-02T11:41:21;45.92;;;28.20;;
21941;SDS011;11135;54.192;15.670;2024-03-02T11:44:47;48.17;;;29.48;;
21941;SDS011;11135;54.192;15.670;2024-03-02T11:48:14;47.15;;;29.65;;
21941;SDS011;11135;54.192;15.670;2024-03-02T11:51:42;53.85;;;31.88;;
21941;SDS011;11135;54.192;15.670;2024-03-02T11:55:15;50.85;;;30.25;;
21941;SDS011;11135;54.192;15.670;2024-03-02T11:58:42;50.53;;;30.70;;
21941;SDS011;11135;54.192;15.670;2024-03-02T12:02:14;49.42;;;30.33;;
21941;SDS011;11135;54.192;15.670;2024-03-02T12:05:41;49.38;;;31.17;;
21941;SDS011;11135;54.192;15.670;2024-03-02T12:09:11;50.00;;;28.95;;
21941;SDS011;11135;54.192;15.670;2024-03-02T12:12:37;50.00;;;31.75;;
21941;SDS011;11135;54.192;15.670;2024-03-02T12:16:04;50.10;;;30.85;;
21941;SDS011;11135;54.192;15.670;2024-03-02T12:19:31;50.40;;;31.52;;
21941;SDS011;11135;54.192;15.670;2024-03-02T12:22:57;48.95;;;32.25;;
21941;SDS011;11135;54.192;15.670;2024-03-02T12:26:26;44.90;;;28.02;;
21941;SDS011;11135;54.192;15.670;2024-03-02T12:29:53;49.65;;;33.42;;
21941;SDS011;11135;54.192;15.670;2024-03-02T12:33:18;48.17;;;29.00;;
21941;SDS011;11135;54.192;15.670;2024-03-02T12:36:45;47.70;;;31.55;;
21941;SDS011;11135;54.192;15.670;2024-03-02T12:40:12;48.33;;;31.30;;
21941;SDS011;11135;54.192;15.670;2024-03-02T12:43:40;51.38;;;31.15;;
21941;SDS011;11135;54.192;15.670;2024-03-02T12:47:06;52.55;;;31.55;;
21941;SDS011;11135;54.192;15.670;2024-03-02T12:50:33;50.75;;;31.02;;
21941;SDS011;11135;54.192;15.670;2024-03-02T12:53:59;49.42;;;29.80;;
21941;SDS011;11135;54.192;15.670;2024-03-02T12:57:25;48.35;;;29.42;;
21941;SDS011;11135;54.192;15.670;2024-03-02T13:04:36;45.45;;;29.40;;
21941;SDS011;11135;54.192;15.670;2024-03-02T13:08:02;48.95;;;32.35;;
21941;SDS011;11135;54.192;15.670;2024-03-02T13:11:29;52.28;;;31.13;;
21941;SDS011;11135;54.192;15.670;2024-03-02T13:14:57;47.90;;;30.67;;
21941;SDS011;11135;54.192;15.670;2024-03-02T13:18:23;48.85;;;31.42;;
21941;SDS011;11135;54.192;15.670;2024-03-02T13:21:51;42.78;;;30.13;;
21941;SDS011;11135;54.192;15.670;2024-03-02T13:25:18;43.35;;;29.48;;
21941;SDS011;11135;54.192;15.670;2024-03-02T13:28:44;45.53;;;30.98;;
21941;SDS011;11135;54.192;15.670;2024-03-02T13:32:09;46.67;;;29.45;;
21941;SDS011;11135;54.192;15.670;2024-03-02T13:35:35;42.47;;;30.23;;
21941;SDS011;11135;54.192;15.670;2024-03-02T13:39:04;43.08;;;28.58;;
21941;SDS011;11135;54.192;15.670;2024-03-02T13:42:32;45.28;;;29.08;;
21941;SDS011;11135;54.192;15.670;2024-03-02T13:45:59;42.65;;;29.73;;
21941;SDS011;11135;54.192;15.670;2024-03-02T13:49:25;42.10;;;30.17;;
21941;SDS011;11135;54.192;15.670;2024-03-02T13:52:57;40.60;;;27.02;;
21941;SDS011;11135;54.192;15.670;2024-03-02T13:56:26;44.20;;;29.45;;
21941;SDS011;11135;54.192;15.670;2024-03-02T13:59:51;38.70;;;29.25;;
21941;SDS011;11135;54.192;15.670;2024-03-02T14:03:17;41.22;;;28.85;;
21941;SDS011;11135;54.192;15.670;2024-03-02T14:06:45;44.28;;;28.20;;
21941;SDS011;11135;54.192;15.670;2024-03-02T14:10:11;44.35;;;29.08;;
21941;SDS011;11135;54.192;15.670;2024-03-02T14:13:41;41.40;;;28.70;;
21941;SDS011;11135;54.192;15.670;2024-03-02T14:17:09;39.28;;;27.67;;
21941;SDS011;11135;54.192;15.670;2024-03-02T14:20:37;38.63;;;27.35;;
21941;SDS011;11135;54.192;15.670;2024-03-02T14:24:07;40.50;;;27.77;;
21941;SDS011;11135;54.192;15.670;2024-03-02T14:27:33;36.42;;;27.27;;
21941;SDS011;11135;54.192;15.670;2024-03-02T14:31:22;37.53;;;24.52;;
21941;SDS011;11135;54.192;15.670;2024-03-02T14:34:48;40.85;;;27.08;;
21941;SDS011;11135;54.192;15.670;2024-03-02T14:38:14;40.25;;;25.00;;
21941;SDS011;11135;54.192;15.670;2024-03-02T14:41:40;39.35;;;26.60;;
21941;SDS011;11135;54.192;15.670;2024-03-02T14:45:06;39.08;;;27.05;;
21941;SDS011;11135;54.192;15.670;2024-03-02T14:48:34;40.58;;;27.67;;
21941;SDS011;11135;54.192;15.670;2024-03-02T14:52:00;46.90;;;29.42;;
21941;SDS011;11135;54.192;15.670;2024-03-02T14:55:27;36.97;;;25.83;;
21941;SDS011;11135;54.192;15.670;2024-03-02T14:58:53;37.83;;;25.48;;
21941;SDS011;11135;54.192;15.670;2024-03-02T15:02:19;37.20;;;26.30;;
21941;SDS011;11135;54.192;15.670;2024-03-02T15:05:47;38.40;;;26.42;;
21941;SDS011;11135;54.192;15.670;2024-03-02T15:09:14;39.30;;;26.08;;
21941;SDS011;11135;54.192;15.670;2024-03-02T15:12:40;34.00;;;24.77;;
21941;SDS011;11135;54.192;15.670;2024-03-02T15:16:07;33.90;;;25.33;;
21941;SDS011;11135;54.192;15.670;2024-03-02T15:19:33;38.55;;;25.88;;
21941;SDS011;11135;54.192;15.670;2024-03-02T15:23:01;39.80;;;27.17;;
21941;SDS011;11135;54.192;15.670;2024-03-02T15:26:27;35.00;;;25.33;;
21941;SDS011;11135;54.192;15.670;2024-03-02T15:29:52;35.90;;;25.05;;
21941;SDS011;11135;54.192;15.670;2024-03-02T15:33:20;35.15;;;24.65;;
21941;SDS011;11135;54.192;15.670;2024-03-02T15:36:48;34.40;;;23.83;;
21941;SDS011;11135;54.192;15.670;2024-03-02T15:40:16;36.05;;;24.77;;
21941;SDS011;11135;54.192;15.670;2024-03-02T15:43:43;34.08;;;23.35;;
21941;SDS011;11135;54.192;15.670;2024-03-02T15:47:09;33.53;;;23.05;;
21941;SDS011;11135;54.192;15.670;2024-03-02T15:50:35;33.90;;;24.80;;
21941;SDS011;11135;54.192;15.670;2024-03-02T15:54:01;38.03;;;24.77;;
21941;SDS011;11135;54.192;15.670;2024-03-02T15:57:29;35.67;;;23.42;;
21941;SDS011;11135;54.192;15.670;2024-03-02T16:00:55;35.38;;;23.30;;
21941;SDS011;11135;54.192;15.670;2024-03-02T16:04:21;39.63;;;24.27;;
21941;SDS011;11135;54.192;15.670;2024-03-02T16:07:47;34.17;;;23.92;;
21941;SDS011;11135;54.192;15.670;2024-03-02T16:11:15;37.80;;;24.98;;
21941;SDS011;11135;54.192;15.670;2024-03-02T16:14:43;35.53;;;24.35;;
21941;SDS011;11135;54.192;15.670;2024-03-02T16:18:08;36.45;;;24.75;;
21941;SDS011;11135;54.192;15.670;2024-03-02T16:21:36;39.22;;;26.05;;
21941;SDS011;11135;54.192;15.670;2024-03-02T16:25:02;35.85;;;25.02;;
21941;SDS011;11135;54.192;15.670;2024-03-02T16:28:28;40.15;;;26.80;;
21941;SDS011;11135;54.192;15.670;2024-03-02T16:31:56;38.05;;;25.45;;
21941;SDS011;11135;54.192;15.670;2024-03-02T16:35:22;42.60;;;26.52;;
21941;SDS011;11135;54.192;15.670;2024-03-02T16:38:48;37.42;;;24.88;;
21941;SDS011;11135;54.192;15.670;2024-03-02T16:42:14;38.63;;;26.88;;
21941;SDS011;11135;54.192;15.670;2024-03-02T16:45:42;37.85;;;25.55;;
21941;SDS011;11135;54.192;15.670;2024-03-02T16:49:10;39.42;;;27.38;;
21941;SDS011;11135;54.192;15.670;2024-03-02T16:52:36;41.35;;;27.83;;
21941;SDS011;11135;54.192;15.670;2024-03-02T16:56:02;33.35;;;23.38;;
21941;SDS011;11135;54.192;15.670;2024-03-02T16:59:30;39.55;;;26.38;;
21941;SDS011;11135;54.192;15.670;2024-03-02T17:02:55;38.17;;;26.15;;
21941;SDS011;11135;54.192;15.670;2024-03-02T17:06:24;40.03;;;25.85;;
21941;SDS011;11135;54.192;15.670;2024-03-02T17:09:50;38.85;;;25.27;;
21941;SDS011;11135;54.192;15.670;2024-03-02T17:13:18;40.08;;;26.98;;
21941;SDS011;11135;54.192;15.670;2024-03-02T17:16:44;41.45;;;27.70;;
21941;SDS011;11135;54.192;15.670;2024-03-02T17:20:09;43.92;;;29.30;;
21941;SDS011;11135;54.192;15.670;2024-03-02T17:23:40;40.75;;;27.50;;
21941;SDS011;11135;54.192;15.670;2024-03-02T17:27:05;37.58;;;25.08;;
21941;SDS011;11135;54.192;15.670;2024-03-02T17:30:31;37.42;;;25.10;;
21941;SDS011;11135;54.192;15.670;2024-03-02T17:33:57;38.88;;;26.10;;
21941;SDS011;11135;54.192;15.670;2024-03-02T17:37:23;36.42;;;24.63;;
21941;SDS011;11135;54.192;15.670;2024-03-02T17:40:51;40.42;;;24.30;;
21941;SDS011;11135;54.192;15.670;2024-03-02T17:44:17;37.85;;;25.20;;
21941;SDS011;11135;54.192;15.670;2024-03-02T17:47:42;37.42;;;25.15;;
21941;SDS011;11135;54.192;15.670;2024-03-02T17:51:08;33.75;;;23.73;;
21941;SDS011;11135;54.192;15.670;2024-03-02T17:54:34;40.10;;;26.75;;
21941;SDS011;11135;54.192;15.670;2024-03-02T17:58:02;38.80;;;26.85;;
21941;SDS011;11135;54.192;15.670;2024-03-02T18:01:28;40.42;;;27.25;;
21941;SDS011;11135;54.192;15.670;2024-03-02T18:04:54;40.17;;;27.25;;
21941;SDS011;11135;54.192;15.670;2024-03-02T18:08:20;35.55;;;24.10;;
21941;SDS011;11135;54.192;15.670;2024-03-02T18:11:46;35.97;;;25.02;;
21941;SDS011;11135;54.192;15.670;2024-03-02T18:15:14;36.20;;;24.63;;
21941;SDS011;11135;54.192;15.670;2024-03-02T18:18:40;39.33;;;25.83;;
21941;SDS011;11135;54.192;15.670;2024-03-02T18:22:06;36.97;;;24.08;;
21941;SDS011;11135;54.192;15.670;2024-03-02T18:25:32;35.75;;;24.70;;
21941;SDS011;11135;54.192;15.670;2024-03-02T18:28:57;37.85;;;24.42;;
21941;SDS011;11135;54.192;15.670;2024-03-02T18:32:26;36.97;;;25.55;;
21941;SDS011;11135;54.192;15.670;2024-03-02T18:35:51;36.33;;;25.70;;
21941;SDS011;11135;54.192;15.670;2024-03-02T18:39:18;38.97;;;24.83;;
21941;SDS011;11135;54.192;15.670;2024-03-02T18:42:43;38.80;;;25.40;;
21941;SDS011;11135;54.192;15.670;2024-03-02T18:46:09;35.42;;;25.17;;
21941;SDS011;11135;54.192;15.670;2024-03-02T18:49:37;40.40;;;27.55;;
21941;SDS011;11135;54.192;15.670;2024-03-02T18:53:07;38.97;;;26.48;;
21941;SDS011;11135;54.192;15.670;2024-03-02T18:56:35;39.25;;;25.92;;
21941;SDS011;11135;54.192;15.670;2024-03-02T19:00:01;35.72;;;25.75;;
21941;SDS011;11135;54.192;15.670;2024-03-02T19:03:28;40.25;;;27.15;;
21941;SDS011;11135;54.192;15.670;2024-03-02T19:06:58;43.55;;;28.15;;
21941;SDS011;11135;54.192;15.670;2024-03-02T19:10:24;38.83;;;25.33;;
21941;SDS011;11135;54.192;15.670;2024-03-02T19:13:50;46.25;;;27.02;;
21941;SDS011;11135;54.192;15.670;2024-03-02T19:17:16;39.92;;;27.35;;
21941;SDS011;11135;54.192;15.670;2024-03-02T19:20:42;39.53;;;26.30;;
21941;SDS011;11135;54.192;15.670;2024-03-02T19:24:10;41.60;;;27.75;;
21941;SDS011;11135;54.192;15.670;2024-03-02T19:27:36;41.95;;;28.40;;
21941;SDS011;11135;54.192;15.670;2024-03-02T19:31:02;42.17;;;27.27;;
21941;SDS011;11135;54.192;15.670;2024-03-02T19:34:27;44.97;;;27.63;;
21941;SDS011;11135;54.192;15.670;2024-03-02T19:37:53;42.70;;;28.40;;
21941;SDS011;11135;54.192;15.670;2024-03-02T19:41:21;45.50;;;28.08;;
21941;SDS011;11135;54.192;15.670;2024-03-02T19:44:47;44.13;;;28.02;;
21941;SDS011;11135;54.192;15.670;2024-03-02T19:48:13;44.15;;;28.20;;
21941;SDS011;11135;54.192;15.670;2024-03-02T19:51:40;46.75;;;29.92;;
21941;SDS011;11135;54.192;15.670;2024-03-02T19:55:05;44.95;;;29.27;;
21941;SDS011;11135;54.192;15.670;2024-03-02T19:58:34;46.05;;;30.13;;
21941;SDS011;11135;54.192;15.670;2024-03-02T20:02:00;45.03;;;28.92;;